createdAt,value
2023-02-18T00:02:18.427Z,14.82
2023-02-18T00:04:45.315Z,14.81
2023-02-18T00:07:12.372Z,14.84
2023-02-18T00:09:42.629Z,14.84
2023-02-18T00:12:09.261Z,14.80
2023-02-18T00:14:36.952Z,14.78
2023-02-18T00:17:04.936Z,14.84
2023-02-18T00:19:31.535Z,14.83
2023-02-18T00:21:58.289Z,14.81
2023-02-18T00:24:24.923Z,14.71
2023-02-18T00:26:52.170Z,14.63
2023-02-18T00:29:19.920Z,14.65
2023-02-18T00:31:48.113Z,14.56
2023-02-18T00:34:14.766Z,14.50
2023-02-18T00:36:42.021Z,14.54
2023-02-18T00:39:09.652Z,14.48
2023-02-18T00:41:36.566Z,14.49
2023-02-18T00:44:06.218Z,14.60
2023-02-18T00:46:36.294Z,14.63
2023-02-18T00:49:03.662Z,14.64
2023-02-18T00:51:30.152Z,14.67
2023-02-18T00:53:58.143Z,14.68
2023-02-18T00:56:24.739Z,14.67
2023-02-18T00:58:52.119Z,14.64
2023-02-18T01:01:19.225Z,14.63
2023-02-18T01:03:45.870Z,14.60
2023-02-18T01:06:14.837Z,14.58
2023-02-18T01:08:42.144Z,14.50
2023-02-18T01:11:09.880Z,14.45
2023-02-18T01:13:37.112Z,14.45
2023-02-18T01:16:06.323Z,14.46
2023-02-18T01:18:33.161Z,14.50
2023-02-18T01:20:59.788Z,14.55
2023-02-18T01:23:26.649Z,14.56
2023-02-18T01:25:53.720Z,14.57
2023-02-18T01:28:25.099Z,14.65
2023-02-18T01:30:52.604Z,14.63
2023-02-18T01:33:19.712Z,14.63
2023-02-18T01:35:46.831Z,14.62
2023-02-18T01:38:13.476Z,14.68
2023-02-18T01:40:48.125Z,14.69
2023-02-18T01:43:15.499Z,14.74
2023-02-18T01:45:42.236Z,14.74
2023-02-18T01:48:15.432Z,14.77
2023-02-18T01:50:43.914Z,14.74
2023-02-18T01:53:11.879Z,14.74
2023-02-18T01:55:39.295Z,14.75
2023-02-18T01:58:06.385Z,14.73
2023-02-18T02:00:33.188Z,14.73
2023-02-18T02:02:59.879Z,14.78
2023-02-18T02:05:30.992Z,14.82
2023-02-18T02:07:57.990Z,14.79
2023-02-18T02:10:26.120Z,14.74
2023-02-18T02:13:07.898Z,14.77
2023-02-18T02:15:53.316Z,14.82
2023-02-18T02:18:46.434Z,14.85
2023-02-18T02:21:31.507Z,14.81
2023-02-18T02:24:12.829Z,14.80
2023-02-18T02:26:54.805Z,14.74
2023-02-18T02:29:21.366Z,14.70
2023-02-18T02:32:01.499Z,14.72
2023-02-18T02:34:45.571Z,14.65
2023-02-18T02:37:15.582Z,14.47
2023-02-18T02:40:01.254Z,14.36
2023-02-18T02:42:41.367Z,14.23
2023-02-18T02:45:20.478Z,14.21
2023-02-18T02:48:16.624Z,14.24
2023-02-18T02:50:54.802Z,14.30
2023-02-18T02:53:24.531Z,14.34
2023-02-18T02:55:51.218Z,14.37
2023-02-18T02:58:19.958Z,14.43
2023-02-18T03:00:47.311Z,14.39
2023-02-18T03:03:14.157Z,14.34
2023-02-18T03:05:55.895Z,14.33
2023-02-18T03:08:22.866Z,14.30
2023-02-18T03:11:07.294Z,14.33
2023-02-18T03:13:48.254Z,14.34
2023-02-18T03:16:24.144Z,14.34
2023-02-18T03:18:56.901Z,14.37
2023-02-18T03:21:38.931Z,14.35
2023-02-18T03:24:13.565Z,14.31
2023-02-18T03:26:45.301Z,14.24
2023-02-18T03:29:16.682Z,14.28
2023-02-18T03:31:50.661Z,14.34
2023-02-18T03:34:20.981Z,14.36
2023-02-18T03:36:50.044Z,14.37
2023-02-18T03:39:18.323Z,14.38
2023-02-18T03:48:33.863Z,14.34
2023-02-18T03:51:14.428Z,14.22
2023-02-18T03:54:24.225Z,14.18
2023-02-18T03:58:04.696Z,14.07
2023-02-18T04:01:14.322Z,14.04
2023-02-18T04:08:41.289Z,14.01
2023-02-18T04:18:02.992Z,13.74
2023-02-18T04:20:52.519Z,13.62
2023-02-18T04:23:29.067Z,13.57
2023-02-18T04:26:54.172Z,13.57
2023-02-18T04:32:58.518Z,13.45
2023-02-18T04:36:50.340Z,13.47
2023-02-18T04:39:45.909Z,13.48
2023-02-18T04:42:45.345Z,13.51
2023-02-18T04:45:56.655Z,13.48
2023-02-18T04:49:00.001Z,13.38
2023-02-18T04:51:51.011Z,13.38
2023-02-18T04:58:02.636Z,13.36
2023-02-18T05:01:38.116Z,13.38
2023-02-18T05:04:19.057Z,13.41
2023-02-18T05:09:51.810Z,13.34
2023-02-18T05:12:27.631Z,13.35
2023-02-18T05:15:03.452Z,13.35
2023-02-18T05:17:34.527Z,13.38
2023-02-18T05:20:34.319Z,13.37
2023-02-18T05:25:54.961Z,13.33
2023-02-18T05:28:29.155Z,13.43
2023-02-18T05:31:08.533Z,13.49
2023-02-18T05:33:40.262Z,13.51
2023-02-18T05:36:20.819Z,13.50
2023-02-18T05:38:53.792Z,13.69
2023-02-18T05:42:16.367Z,13.79
2023-02-18T05:44:37.626Z,13.79
2023-02-18T05:47:19.070Z,13.72
2023-02-18T05:49:52.533Z,13.70
2023-02-18T05:52:28.664Z,13.74
2023-02-18T05:55:13.895Z,13.83
2023-02-18T05:57:49.226Z,13.82
2023-02-18T06:03:40.410Z,14.00
2023-02-18T06:06:36.152Z,14.04
2023-02-18T06:09:09.293Z,14.00
2023-02-18T06:11:43.033Z,13.95
2023-02-18T06:14:22.559Z,14.01
2023-02-18T06:17:03.173Z,13.99
2023-02-18T06:19:33.535Z,13.98
2023-02-18T06:22:19.123Z,14.00
2023-02-18T06:27:58.203Z,14.07
2023-02-18T06:30:43.209Z,14.11
2023-02-18T06:33:31.197Z,14.15
2023-02-18T06:36:16.659Z,14.14
2023-02-18T06:38:45.493Z,14.22
2023-02-18T06:41:44.842Z,14.20
2023-02-18T06:44:21.233Z,14.28
2023-02-18T06:46:51.078Z,14.30
2023-02-18T06:49:33.982Z,14.31
2023-02-18T06:52:39.195Z,14.36
2023-02-18T06:55:14.361Z,14.41
2023-02-18T06:58:16.831Z,14.43
2023-02-18T07:00:38.356Z,14.47
2023-02-18T07:03:19.489Z,14.51
2023-02-18T07:05:53.607Z,14.52
2023-02-18T07:08:25.348Z,14.56
2023-02-18T07:10:57.573Z,14.55
2023-02-18T07:13:31.860Z,14.56
2023-02-18T07:16:02.564Z,14.57
2023-02-18T07:18:36.834Z,14.58
2023-02-18T07:21:12.302Z,14.61
2023-02-18T07:23:45.758Z,14.67
2023-02-18T07:26:21.730Z,14.70
2023-02-18T07:28:49.081Z,14.73
2023-02-18T07:31:24.506Z,14.77
2023-02-18T07:34:01.422Z,14.85
2023-02-18T07:36:32.988Z,14.85
2023-02-18T07:39:12.030Z,14.88
2023-02-18T07:41:50.204Z,14.87
2023-02-18T07:44:21.816Z,14.93
2023-02-18T07:46:54.749Z,14.97
2023-02-18T07:49:22.189Z,14.94
2023-02-18T07:51:49.856Z,14.98
2023-02-18T07:54:17.189Z,14.87
2023-02-18T07:56:47.222Z,14.74
2023-02-18T07:59:19.414Z,14.74
2023-02-18T08:01:46.710Z,14.77
2023-02-18T08:04:15.471Z,14.89
2023-02-18T08:06:46.918Z,14.98
2023-02-18T08:09:15.358Z,14.97
2023-02-18T08:11:44.038Z,14.99
2023-02-18T08:14:14.548Z,15.04
2023-02-18T08:16:45.195Z,15.00
2023-02-18T08:19:14.733Z,14.98
2023-02-18T08:21:46.732Z,14.97
2023-02-18T08:24:21.712Z,14.96
2023-02-18T08:27:01.099Z,15.01
2023-02-18T08:29:31.620Z,14.99
2023-02-18T08:31:59.928Z,15.10
2023-02-18T08:34:27.718Z,15.19
2023-02-18T08:36:58.895Z,15.27
2023-02-18T08:39:28.480Z,15.35
2023-02-18T08:41:58.655Z,15.40
2023-02-18T08:44:32.084Z,15.44
2023-02-18T08:47:02.536Z,15.46
2023-02-18T08:49:29.572Z,15.49
2023-02-18T08:51:57.531Z,15.49
2023-02-18T08:54:24.598Z,15.45
2023-02-18T08:56:56.416Z,15.41
2023-02-18T08:59:25.343Z,15.46
2023-02-18T09:01:53.699Z,15.52
2023-02-18T09:04:22.346Z,15.51
2023-02-18T09:06:59.096Z,15.52
2023-02-18T09:09:30.676Z,15.51
2023-02-18T09:12:03.227Z,15.53
2023-02-18T09:14:33.574Z,15.54
2023-02-18T09:17:00.738Z,15.55
2023-02-18T09:19:30.713Z,15.57
2023-02-18T09:22:00.716Z,15.56
2023-02-18T09:24:28.195Z,15.55
2023-02-18T09:26:56.047Z,15.53
2023-02-18T09:29:25.571Z,15.58
2023-02-18T09:31:55.019Z,15.62
2023-02-18T09:34:22.835Z,15.65
2023-02-18T09:36:52.652Z,15.68
2023-02-18T09:39:20.501Z,15.69
2023-02-18T09:41:48.641Z,15.69
2023-02-18T09:44:25.970Z,15.66
2023-02-18T09:47:16.627Z,15.58
2023-02-18T09:49:55.704Z,15.66
2023-02-18T09:52:26.042Z,15.81
2023-02-18T09:55:00.814Z,15.75
2023-02-18T09:57:28.851Z,15.71
2023-02-18T09:59:59.004Z,15.72
2023-02-18T10:02:27.388Z,15.65
2023-02-18T10:04:55.285Z,15.58
2023-02-18T10:07:31.065Z,15.53
2023-02-18T10:10:02.738Z,15.56
2023-02-18T10:12:35.142Z,15.51
2023-02-18T10:15:03.289Z,15.51
2023-02-18T10:17:42.641Z,15.52
2023-02-18T10:20:19.045Z,15.54
2023-02-18T10:22:46.838Z,15.53
2023-02-18T10:25:23.082Z,15.60
2023-02-18T10:27:53.835Z,15.68
2023-02-18T10:30:41.428Z,15.74
2023-02-18T10:33:54.506Z,15.70
2023-02-18T10:40:18.176Z,15.53
2023-02-18T10:43:07.072Z,15.54
2023-02-18T10:49:47.395Z,15.41
2023-02-18T10:52:32.868Z,15.48
2023-02-18T10:55:25.466Z,15.50
2023-02-18T10:58:40.195Z,15.52
2023-02-18T11:01:40.776Z,15.52
2023-02-18T11:09:07.112Z,15.46
2023-02-18T11:22:44.271Z,15.65
2023-02-18T11:33:20.719Z,16.06
2023-02-18T11:35:58.673Z,16.99
2023-02-18T11:45:07.805Z,16.70
2023-02-18T11:47:41.178Z,16.50
2023-02-18T11:55:08.615Z,16.53
2023-02-18T11:58:13.072Z,16.53
2023-02-18T12:01:25.551Z,16.21
2023-02-18T12:04:35.951Z,16.08
2023-02-18T12:08:21.655Z,16.25
2023-02-18T12:14:55.956Z,17.12
2023-02-18T12:17:49.240Z,17.64
2023-02-18T12:24:09.281Z,17.83
2023-02-18T12:27:15.093Z,17.83
2023-02-18T12:29:43.448Z,18.34
2023-02-18T12:32:36.501Z,19.06
2023-02-18T12:35:49.810Z,18.99
2023-02-18T12:38:51.210Z,19.93
2023-02-18T12:41:32.822Z,20.03
2023-02-18T12:44:06.211Z,20.66
2023-02-18T12:46:40.755Z,20.83
2023-02-18T12:49:14.144Z,20.93
2023-02-18T12:51:41.005Z,21.09
2023-02-18T12:54:27.755Z,20.81
2023-02-18T12:57:14.309Z,20.29
2023-02-18T12:59:47.931Z,20.72
2023-02-18T13:02:29.193Z,20.61
2023-02-18T13:05:08.582Z,20.32
2023-02-18T13:07:35.272Z,20.12
2023-02-18T13:10:17.998Z,19.79
2023-02-18T13:13:17.790Z,19.40
2023-02-18T13:15:49.062Z,19.12
2023-02-18T13:18:38.725Z,18.92
2023-02-18T13:21:14.825Z,18.73
2023-02-18T13:24:01.642Z,18.66
2023-02-18T13:26:30.369Z,18.68
2023-02-18T13:29:07.187Z,18.67
2023-02-18T13:31:54.210Z,18.73
2023-02-18T13:34:31.556Z,18.68
2023-02-18T13:37:16.507Z,18.64
2023-02-18T13:39:54.540Z,18.67
2023-02-18T13:42:25.208Z,18.65
2023-02-18T13:44:55.758Z,18.72
2023-02-18T13:47:42.877Z,18.74
2023-02-18T13:50:29.106Z,18.68
2023-02-18T13:53:08.575Z,18.53
2023-02-18T13:56:02.269Z,18.51
2023-02-18T13:58:29.227Z,18.42
2023-02-18T14:01:04.683Z,18.37
2023-02-18T14:03:38.306Z,18.18
2023-02-18T14:06:17.796Z,18.20
2023-02-18T14:08:45.594Z,18.41
2023-02-18T14:11:13.142Z,18.66
2023-02-18T14:13:41.125Z,18.73
2023-02-18T14:16:10.096Z,18.63
2023-02-18T14:18:40.222Z,18.54
2023-02-18T14:21:13.749Z,18.28
2023-02-18T14:23:53.454Z,18.13
2023-02-18T14:26:31.052Z,17.94
2023-02-18T14:29:01.766Z,17.76
2023-02-18T14:31:36.880Z,17.63
2023-02-18T14:34:28.397Z,17.55
2023-02-18T14:37:04.143Z,17.53
2023-02-18T14:39:41.871Z,17.45
2023-02-18T14:42:27.658Z,17.35
2023-02-18T14:44:58.186Z,17.49
2023-02-18T14:47:33.347Z,17.49
2023-02-18T14:50:07.502Z,17.50
2023-02-18T14:52:42.228Z,17.52
2023-02-18T14:58:28.813Z,17.48
2023-02-18T15:01:01.187Z,17.66
2023-02-18T15:03:29.407Z,17.57
2023-02-18T15:06:00.099Z,17.46
2023-02-18T15:08:37.042Z,17.36
2023-02-18T15:11:06.588Z,17.29
2023-02-18T15:13:44.232Z,17.16
2023-02-18T15:16:33.446Z,17.01
2023-02-18T15:19:11.482Z,16.93
2023-02-18T15:21:43.192Z,16.92
2023-02-18T15:24:27.355Z,16.87
2023-02-18T15:26:59.063Z,16.84
2023-02-18T15:29:31.935Z,16.89
2023-02-18T15:32:05.660Z,16.88
2023-02-18T15:34:38.301Z,16.84
2023-02-18T15:37:07.061Z,16.69
2023-02-18T15:39:39.289Z,16.61
2023-02-18T15:42:32.950Z,16.58
2023-02-18T15:45:07.118Z,16.43
2023-02-18T15:47:35.611Z,16.46
2023-02-18T15:50:05.789Z,16.40
2023-02-18T15:52:37.775Z,16.27
2023-02-18T15:55:08.386Z,16.06
2023-02-18T15:57:42.039Z,15.88
2023-02-18T16:00:16.410Z,15.81
2023-02-18T16:03:00.044Z,15.72
2023-02-18T16:05:28.729Z,15.59
2023-02-18T16:08:14.454Z,15.60
2023-02-18T16:10:49.827Z,15.55
2023-02-18T16:13:18.329Z,15.51
2023-02-18T16:15:47.517Z,15.48
2023-02-18T16:18:33.367Z,15.51
2023-02-18T16:21:09.785Z,15.42
2023-02-18T16:23:42.692Z,15.38
2023-02-18T16:26:12.637Z,15.41
2023-02-18T16:28:43.704Z,15.42
2023-02-18T16:31:11.100Z,15.38
2023-02-18T16:33:44.715Z,15.38
2023-02-18T16:36:16.304Z,15.26
2023-02-18T16:38:45.239Z,15.23
2023-02-18T16:41:19.184Z,15.22
2023-02-18T16:43:50.816Z,15.11
2023-02-18T16:46:19.822Z,15.08
2023-02-18T16:48:55.760Z,15.13
2023-02-18T16:51:27.873Z,15.18
2023-02-18T16:53:58.665Z,15.20
2023-02-18T16:56:28.034Z,15.20
2023-02-18T16:58:59.626Z,15.19
2023-02-18T17:01:32.997Z,15.12
2023-02-18T17:04:01.858Z,15.05
2023-02-18T17:06:34.596Z,15.05
2023-02-18T17:09:24.198Z,15.01
2023-02-18T17:11:56.871Z,14.94
2023-02-18T17:14:25.641Z,14.96
2023-02-18T17:16:55.118Z,14.91
2023-02-18T17:19:22.180Z,14.85
2023-02-18T17:21:50.050Z,14.79
2023-02-18T17:24:17.997Z,14.84
2023-02-18T17:26:53.462Z,14.81
2023-02-18T17:29:27.355Z,14.76
2023-02-18T17:31:57.933Z,14.67
2023-02-18T17:34:28.932Z,14.60
2023-02-18T17:37:05.927Z,14.58
2023-02-18T17:39:36.546Z,14.50
2023-02-18T17:42:04.326Z,14.45
2023-02-18T17:44:34.782Z,14.36
2023-02-18T17:47:02.932Z,14.33
2023-02-18T17:49:30.523Z,14.29
2023-02-18T17:51:58.213Z,14.29
2023-02-18T17:54:28.105Z,14.28
2023-02-18T17:57:05.096Z,14.26
2023-02-18T17:59:32.450Z,14.25
2023-02-18T18:01:59.911Z,14.16
2023-02-18T18:04:34.960Z,14.12
2023-02-18T18:07:02.997Z,14.15
2023-02-18T18:09:34.235Z,14.21
2023-02-18T18:12:01.557Z,14.19
2023-02-18T18:14:29.260Z,14.15
2023-02-18T18:16:56.603Z,14.14
2023-02-18T18:19:23.848Z,14.08
2023-02-18T18:21:55.214Z,14.07
2023-02-18T18:24:22.457Z,14.08
2023-02-18T18:26:49.875Z,14.02
2023-02-18T18:29:17.816Z,13.98
2023-02-18T18:31:45.833Z,13.95
2023-02-18T18:34:16.895Z,13.93
2023-02-18T18:36:45.426Z,13.92
2023-02-18T18:39:14.357Z,13.87
2023-02-18T18:41:41.854Z,13.88
2023-02-18T18:44:14.486Z,13.88
2023-02-18T18:56:56.016Z,13.56
2023-02-18T18:57:42.746Z,13.72
2023-02-18T18:59:26.621Z,13.53
2023-02-18T19:02:03.597Z,13.51
2023-02-18T19:04:31.668Z,13.51
2023-02-18T19:07:05.466Z,13.55
2023-02-18T19:09:36.268Z,13.57
2023-02-18T19:12:13.091Z,13.56
2023-02-18T19:14:50.728Z,13.57
2023-02-18T19:17:23.149Z,13.62
2023-02-18T19:19:51.917Z,13.69
2023-02-18T19:22:21.236Z,13.73
2023-02-18T19:24:48.251Z,13.75
2023-02-18T19:27:20.749Z,13.74
2023-02-18T19:29:50.341Z,13.68
2023-02-18T19:32:17.721Z,13.67
2023-02-18T19:34:46.620Z,13.69
2023-02-18T19:37:15.228Z,13.68
2023-02-18T19:39:42.534Z,13.62
2023-02-18T19:42:09.907Z,13.53
2023-02-18T19:44:38.505Z,13.45
2023-02-18T19:47:05.745Z,13.45
2023-02-18T19:49:33.205Z,13.44
2023-02-18T19:52:06.236Z,13.39
2023-02-18T19:54:34.680Z,13.38
2023-02-18T19:57:04.920Z,13.35
2023-02-18T19:59:32.342Z,13.39
2023-02-18T20:02:02.994Z,13.39
2023-02-18T20:04:31.434Z,13.40
2023-02-18T20:06:58.712Z,13.45
2023-02-18T20:09:26.256Z,13.47
2023-02-18T20:11:56.346Z,13.51
2023-02-18T20:14:27.217Z,13.47
2023-02-18T20:16:54.851Z,13.36
2023-02-18T20:19:23.786Z,13.30
2023-02-18T20:21:51.941Z,13.26
2023-02-18T20:24:18.908Z,13.32
2023-02-18T20:26:46.067Z,13.42
2023-02-18T20:29:16.391Z,13.45
2023-02-18T20:31:47.543Z,13.40
2023-02-18T20:34:15.082Z,13.37
2023-02-18T20:36:45.771Z,13.32
2023-02-18T20:39:16.680Z,13.33
2023-02-18T20:41:50.330Z,13.30
2023-02-18T20:44:18.065Z,13.25
2023-02-18T20:46:51.614Z,13.23
2023-02-18T20:49:19.888Z,13.19
2023-02-18T20:51:47.428Z,13.19
2023-02-18T20:54:20.161Z,13.19
2023-02-18T20:56:49.722Z,13.18
2023-02-18T20:59:18.294Z,13.14
2023-02-18T21:01:48.710Z,13.13
2023-02-18T21:04:19.406Z,13.10
2023-02-18T21:06:53.560Z,13.07
2023-02-18T21:09:21.709Z,13.14
2023-02-18T21:11:49.723Z,13.10
2023-02-18T21:14:17.282Z,13.04
2023-02-18T21:16:44.290Z,12.93
2023-02-18T21:19:13.316Z,12.90
2023-02-18T21:21:41.019Z,12.87
2023-02-18T21:24:08.063Z,12.85
2023-02-18T21:26:35.146Z,12.85
2023-02-18T21:29:06.048Z,12.89
2023-02-18T21:31:35.162Z,12.93
2023-02-18T21:34:06.876Z,13.04
2023-02-18T21:36:33.866Z,13.06
2023-02-18T21:39:02.519Z,13.02
2023-02-18T21:41:32.012Z,12.95
2023-02-18T21:43:59.377Z,12.91
2023-02-18T21:46:28.929Z,12.89
2023-02-18T21:49:02.429Z,12.91
2023-02-18T21:51:50.420Z,12.94
2023-02-18T21:54:22.678Z,12.96
2023-02-18T21:56:50.548Z,12.98
2023-02-18T21:59:17.571Z,13.00
2023-02-18T22:01:44.775Z,13.07
2023-02-18T22:04:12.425Z,13.16
2023-02-18T22:06:39.342Z,13.21
2023-02-18T22:09:07.008Z,13.23
2023-02-18T22:11:34.661Z,13.30
2023-02-18T22:14:01.323Z,13.32
2023-02-18T22:16:28.809Z,13.29
2023-02-18T22:18:58.940Z,13.21
2023-02-18T22:21:26.451Z,13.20
2023-02-18T22:23:53.833Z,13.17
2023-02-18T22:26:21.157Z,13.18
2023-02-18T22:28:56.309Z,13.18
2023-02-18T22:31:23.918Z,13.20
2023-02-18T22:33:54.480Z,13.27
2023-02-18T22:36:22.577Z,13.20
2023-02-18T22:38:49.936Z,13.24
2023-02-18T22:41:21.644Z,13.16
2023-02-18T22:43:51.632Z,13.12
2023-02-18T22:46:20.964Z,13.15
2023-02-18T22:48:52.033Z,13.15
2023-02-18T22:51:22.549Z,13.17
2023-02-18T22:53:49.820Z,13.13
2023-02-18T22:56:24.266Z,13.13
2023-02-18T22:58:56.058Z,13.09
2023-02-18T23:01:28.906Z,13.16
2023-02-18T23:03:57.531Z,13.16
2023-02-18T23:06:25.229Z,13.17
2023-02-18T23:08:55.566Z,13.24
2023-02-18T23:11:25.720Z,13.24
2023-02-18T23:14:12.956Z,13.25
2023-02-18T23:16:59.290Z,13.27
2023-02-18T23:19:27.876Z,13.28
2023-02-18T23:21:58.328Z,13.25
2023-02-18T23:24:35.357Z,13.27
2023-02-18T23:27:03.019Z,13.31
2023-02-18T23:29:33.151Z,13.35
2023-02-18T23:32:03.608Z,13.38
2023-02-18T23:34:37.888Z,13.40
2023-02-18T23:37:11.939Z,13.35
2023-02-18T23:39:40.160Z,13.37
2023-02-18T23:42:08.678Z,13.37
2023-02-18T23:44:38.914Z,13.39
2023-02-18T23:47:05.847Z,13.33
2023-02-18T23:49:36.457Z,13.27
2023-02-18T23:52:06.973Z,13.25
2023-02-18T23:54:34.695Z,13.20
2023-02-18T23:57:01.822Z,13.26
2023-02-18T23:59:38.721Z,13.36
